createdAt,value
2019-02-18T00:02:20.788Z,91.70
2019-02-18T00:04:51.479Z,91.80
2019-02-18T00:07:22.050Z,91.70
2019-02-18T00:09:52.534Z,91.70
2019-02-18T00:12:23.650Z,91.70
2019-02-18T00:14:54.241Z,91.60
2019-02-18T00:17:24.644Z,91.70
2019-02-18T00:19:55.203Z,91.80
2019-02-18T00:22:25.974Z,91.80
2019-02-18T00:24:56.661Z,91.70
2019-02-18T00:27:27.351Z,91.60
2019-02-18T00:29:57.956Z,91.70
2019-02-18T00:32:28.518Z,91.60
2019-02-18T00:34:59.158Z,91.70
2019-02-18T00:37:29.924Z,91.60
2019-02-18T00:40:00.473Z,91.60
2019-02-18T00:42:31.092Z,91.70
2019-02-18T00:45:01.514Z,91.70
2019-02-18T00:47:32.243Z,91.70
2019-02-18T00:50:02.738Z,91.60
2019-02-18T00:52:33.505Z,91.60
2019-02-18T00:55:04.898Z,91.60
2019-02-18T00:57:35.995Z,91.50
2019-02-18T01:00:12.812Z,91.50
2019-02-18T01:02:43.730Z,91.50
2019-02-18T01:05:14.430Z,91.70
2019-02-18T01:07:45.144Z,91.60
2019-02-18T01:10:16.052Z,91.80
2019-02-18T01:12:46.606Z,91.60
2019-02-18T01:15:17.522Z,91.60
2019-02-18T01:17:48.458Z,91.60
2019-02-18T01:20:19.156Z,91.60
2019-02-18T01:22:49.606Z,91.60
2019-02-18T01:25:20.279Z,91.60
2019-02-18T01:27:51.261Z,91.60
2019-02-18T01:30:22.129Z,91.50
2019-02-18T01:32:52.644Z,91.50
2019-02-18T01:35:23.333Z,91.50
2019-02-18T01:37:54.436Z,91.60
2019-02-18T01:40:25.076Z,91.30
2019-02-18T01:42:55.772Z,91.30
2019-02-18T01:45:26.172Z,91.40
2019-02-18T01:47:57.057Z,91.50
2019-02-18T01:50:27.638Z,91.60
2019-02-18T01:52:58.441Z,91.50
2019-02-18T01:55:29.464Z,91.60
2019-02-18T01:58:00.013Z,91.40
2019-02-18T02:00:30.992Z,91.50
2019-02-18T02:03:01.389Z,91.60
2019-02-18T02:05:32.009Z,91.40
2019-02-18T02:08:02.589Z,91.60
2019-02-18T02:10:33.217Z,91.60
2019-02-18T02:13:28.489Z,91.50
2019-02-18T02:15:59.648Z,91.60
2019-02-18T02:18:30.264Z,91.40
2019-02-18T02:21:00.917Z,91.50
2019-02-18T02:23:31.545Z,91.50
2019-02-18T02:26:01.864Z,91.60
2019-02-18T02:28:32.509Z,91.60
2019-02-18T02:31:03.554Z,91.60
2019-02-18T02:33:34.237Z,91.60
2019-02-18T02:36:05.364Z,91.60
2019-02-18T02:38:36.025Z,91.60
2019-02-18T02:41:06.759Z,91.60
2019-02-18T02:43:37.481Z,91.70
2019-02-18T02:46:08.158Z,91.60
2019-02-18T02:48:38.875Z,91.70
2019-02-18T02:51:09.708Z,91.60
2019-02-18T02:53:40.369Z,91.50
2019-02-18T02:56:10.956Z,91.60
2019-02-18T02:58:41.713Z,91.60
2019-02-18T03:01:12.420Z,91.60
2019-02-18T03:03:43.537Z,91.70
2019-02-18T03:06:14.185Z,91.70
2019-02-18T03:08:44.671Z,91.60
2019-02-18T03:11:15.252Z,91.60
2019-02-18T03:13:45.874Z,91.50
2019-02-18T03:16:16.551Z,91.60
2019-02-18T03:18:47.086Z,91.70
2019-02-18T03:21:17.404Z,91.70
2019-02-18T03:23:48.276Z,91.70
2019-02-18T03:26:19.248Z,91.60
2019-02-18T03:29:10.798Z,91.60
2019-02-18T03:31:42.097Z,91.70
2019-02-18T03:34:15.801Z,91.60
2019-02-18T03:36:46.715Z,91.70
2019-02-18T03:39:17.505Z,91.60
2019-02-18T03:41:47.931Z,91.60
2019-02-18T03:44:18.450Z,91.70
2019-02-18T03:46:50.747Z,91.60
2019-02-18T03:49:21.331Z,91.60
2019-02-18T03:51:52.356Z,91.60
2019-02-18T03:54:23.109Z,91.50
2019-02-18T03:56:54.513Z,91.60
2019-02-18T03:59:25.229Z,91.60
2019-02-18T04:01:55.866Z,91.60
2019-02-18T04:04:26.702Z,92.00
2019-02-18T04:06:57.408Z,91.60
2019-02-18T04:09:28.102Z,91.70
2019-02-18T04:11:58.664Z,91.70
2019-02-18T04:14:29.685Z,91.70
2019-02-18T04:17:00.634Z,91.70
2019-02-18T04:19:31.515Z,91.70
2019-02-18T04:22:01.824Z,91.70
2019-02-18T04:24:32.475Z,91.70
2019-02-18T04:27:03.158Z,91.70
2019-02-18T04:29:34.084Z,91.70
2019-02-18T04:32:05.119Z,91.70
2019-02-18T04:34:35.774Z,91.70
2019-02-18T04:37:06.404Z,91.60
2019-02-18T04:39:36.932Z,91.50
2019-02-18T04:42:07.552Z,91.60
2019-02-18T04:44:38.037Z,91.70
2019-02-18T04:47:08.558Z,91.60
2019-02-18T04:49:39.108Z,91.70
2019-02-18T04:52:10.327Z,91.60
2019-02-18T04:54:41.030Z,91.60
2019-02-18T04:57:11.945Z,91.60
2019-02-18T04:59:42.786Z,91.60
2019-02-18T05:02:13.674Z,91.60
2019-02-18T05:04:44.468Z,91.60
2019-02-18T05:07:14.794Z,91.50
2019-02-18T05:09:45.571Z,91.60
2019-02-18T05:12:16.000Z,91.60
2019-02-18T05:14:46.485Z,91.60
2019-02-18T05:17:17.065Z,91.60
2019-02-18T05:19:47.670Z,91.60
2019-02-18T05:22:18.123Z,91.70
2019-02-18T05:24:49.149Z,91.60
2019-02-18T05:27:20.042Z,91.60
2019-02-18T05:29:50.927Z,91.50
2019-02-18T05:32:21.837Z,91.50
2019-02-18T05:34:52.405Z,91.60
2019-02-18T05:37:23.003Z,91.60
2019-02-18T05:39:55.464Z,91.60
2019-02-18T05:42:26.307Z,91.50
2019-02-18T05:44:57.169Z,91.60
2019-02-18T05:47:27.965Z,91.70
2019-02-18T05:49:58.639Z,91.70
2019-02-18T05:52:29.417Z,91.70
2019-02-18T05:55:00.431Z,91.80
2019-02-18T05:57:30.894Z,91.60
2019-02-18T06:00:01.574Z,91.60
2019-02-18T06:02:32.549Z,91.60
2019-02-18T06:05:03.059Z,91.70
2019-02-18T06:07:33.733Z,91.60
2019-02-18T06:10:04.966Z,91.60
2019-02-18T06:12:35.645Z,91.60
2019-02-18T06:15:08.764Z,91.60
2019-02-18T06:17:39.380Z,91.60
2019-02-18T06:20:10.368Z,91.60
2019-02-18T06:22:41.016Z,91.70
2019-02-18T06:25:12.119Z,91.60
2019-02-18T06:27:42.706Z,91.60
2019-02-18T06:30:13.452Z,91.70
2019-02-18T06:32:44.054Z,91.70
2019-02-18T06:35:14.732Z,91.20
2019-02-18T06:37:45.313Z,92.20
2019-02-18T06:40:16.317Z,92.30
2019-02-18T06:42:46.877Z,92.10
2019-02-18T06:45:37.815Z,92.00
2019-02-18T06:48:19.413Z,91.90
2019-02-18T06:50:50.256Z,91.80
2019-02-18T06:53:20.924Z,91.90
2019-02-18T06:55:51.358Z,91.80
2019-02-18T06:58:23.868Z,91.80
2019-02-18T07:00:56.245Z,91.80
2019-02-18T07:03:44.793Z,91.80
2019-02-18T07:06:33.547Z,91.90
2019-02-18T07:09:22.506Z,91.80
2019-02-18T07:11:57.952Z,91.80
2019-02-18T07:14:28.644Z,91.70
2019-02-18T07:16:59.390Z,91.80
2019-02-18T07:19:30.170Z,91.80
2019-02-18T07:22:01.090Z,92.00
2019-02-18T07:24:31.827Z,92.00
2019-02-18T07:27:02.366Z,92.00
2019-02-18T07:29:34.150Z,92.00
2019-02-18T07:32:04.841Z,92.00
2019-02-18T07:34:35.544Z,92.00
2019-02-18T07:37:06.042Z,92.10
2019-02-18T07:39:39.575Z,92.10
2019-02-18T07:42:10.098Z,92.10
2019-02-18T07:44:41.121Z,92.20
2019-02-18T07:47:11.696Z,92.20
2019-02-18T07:49:42.066Z,92.20
2019-02-18T07:52:12.597Z,92.30
2019-02-18T07:54:43.531Z,92.30
2019-02-18T07:57:14.149Z,92.30
2019-02-18T07:59:44.773Z,92.30
2019-02-18T08:02:15.448Z,92.30
2019-02-18T08:04:45.977Z,92.40
2019-02-18T08:07:16.660Z,92.50
2019-02-18T08:09:47.776Z,92.50
2019-02-18T08:12:18.450Z,92.20
2019-02-18T08:14:49.119Z,92.20
2019-02-18T08:17:19.750Z,92.30
2019-02-18T08:19:50.417Z,92.10
2019-02-18T08:22:21.396Z,92.10
2019-02-18T08:24:52.120Z,92.10
2019-02-18T08:27:23.032Z,92.00
2019-02-18T08:29:53.779Z,92.00
2019-02-18T08:32:24.464Z,91.90
2019-02-18T08:34:55.133Z,92.10
2019-02-18T08:37:25.720Z,92.00
2019-02-18T08:39:56.201Z,92.10
2019-02-18T08:42:27.078Z,92.00
2019-02-18T08:44:57.670Z,92.00
2019-02-18T08:47:28.253Z,92.10
2019-02-18T08:49:58.684Z,91.90
2019-02-18T08:52:29.473Z,92.20
2019-02-18T08:55:00.050Z,92.30
2019-02-18T08:57:30.887Z,92.20
2019-02-18T09:00:01.413Z,92.10
2019-02-18T09:02:32.419Z,92.10
2019-02-18T09:05:03.092Z,92.00
2019-02-18T09:07:33.704Z,92.20
2019-02-18T09:10:05.375Z,92.30
2019-02-18T09:12:35.878Z,92.10
2019-02-18T09:15:08.443Z,92.30
2019-02-18T09:17:39.202Z,92.20
2019-02-18T09:20:10.689Z,92.00
2019-02-18T09:22:59.443Z,92.00
2019-02-18T09:25:32.020Z,92.00
2019-02-18T09:28:02.826Z,92.00
2019-02-18T09:30:35.126Z,92.00
2019-02-18T09:33:05.798Z,92.10
2019-02-18T09:35:36.456Z,91.90
2019-02-18T09:38:07.248Z,92.00
2019-02-18T09:40:44.677Z,92.10
2019-02-18T09:43:10.129Z,92.10
2019-02-18T09:45:40.708Z,92.10
2019-02-18T09:48:11.392Z,92.20
2019-02-18T09:50:42.086Z,92.10
2019-02-18T09:53:12.752Z,92.30
2019-02-18T09:55:43.534Z,92.10
2019-02-18T09:58:14.672Z,92.20
2019-02-18T10:00:45.240Z,92.20
2019-02-18T10:03:16.344Z,92.20
2019-02-18T10:05:46.999Z,92.10
2019-02-18T10:08:17.686Z,92.20
2019-02-18T10:10:55.386Z,92.20
2019-02-18T10:13:20.547Z,92.20
2019-02-18T10:15:52.737Z,92.30
2019-02-18T10:18:23.247Z,92.10
2019-02-18T10:20:54.249Z,92.20
2019-02-18T10:23:25.029Z,92.30
2019-02-18T10:25:56.249Z,92.50
2019-02-18T10:28:27.259Z,92.10
2019-02-18T10:30:58.213Z,92.30
2019-02-18T10:33:28.975Z,92.50
2019-02-18T10:35:59.396Z,92.20
2019-02-18T10:38:30.506Z,92.40
2019-02-18T10:41:07.097Z,92.50
2019-02-18T10:43:33.711Z,92.10
2019-02-18T10:46:04.670Z,92.20
2019-02-18T10:48:35.320Z,92.30
2019-02-18T10:51:06.073Z,92.10
2019-02-18T10:53:37.193Z,92.30
2019-02-18T10:56:08.328Z,92.40
2019-02-18T10:58:39.179Z,92.60
2019-02-18T11:01:10.286Z,92.20
2019-02-18T11:03:41.068Z,92.10
2019-02-18T11:06:11.703Z,92.20
2019-02-18T11:08:42.416Z,92.30
2019-02-18T11:11:17.112Z,92.70
2019-02-18T11:13:45.305Z,92.20
2019-02-18T11:16:16.316Z,92.40
2019-02-18T11:18:47.180Z,92.50
2019-02-18T11:21:17.811Z,92.30
2019-02-18T11:23:48.693Z,92.50
2019-02-18T11:26:19.392Z,92.70
2019-02-18T11:28:50.284Z,92.70
2019-02-18T11:31:20.869Z,92.90
2019-02-18T11:33:51.635Z,92.70
2019-02-18T11:36:22.302Z,92.80
2019-02-18T11:38:53.338Z,92.50
2019-02-18T11:41:27.393Z,92.20
2019-02-18T11:43:56.715Z,92.20
2019-02-18T11:46:27.641Z,92.30
2019-02-18T11:48:58.334Z,92.70
2019-02-18T11:51:29.035Z,92.60
2019-02-18T11:53:59.557Z,92.70
2019-02-18T11:56:30.928Z,92.80
2019-02-18T11:59:01.625Z,92.80
2019-02-18T12:01:32.318Z,92.70
2019-02-18T12:04:02.981Z,92.70
2019-02-18T12:06:33.670Z,93.10
2019-02-18T12:09:05.299Z,93.30
2019-02-18T12:11:38.297Z,92.80
2019-02-18T12:14:08.496Z,93.00
2019-02-18T12:16:39.996Z,92.80
2019-02-18T12:19:10.480Z,92.70
2019-02-18T12:21:41.088Z,92.40
2019-02-18T12:24:12.060Z,92.90
2019-02-18T12:26:42.758Z,92.60
2019-02-18T12:29:13.249Z,93.00
2019-02-18T12:31:44.324Z,93.00
2019-02-18T12:34:15.027Z,92.70
2019-02-18T12:36:45.691Z,92.80
2019-02-18T12:39:16.256Z,93.00
2019-02-18T12:41:48.967Z,93.30
2019-02-18T12:44:20.596Z,92.90
2019-02-18T12:46:51.170Z,92.90
2019-02-18T12:49:21.846Z,92.70
2019-02-18T12:51:52.735Z,92.70
2019-02-18T12:54:23.840Z,92.50
2019-02-18T12:56:54.440Z,92.60
2019-02-18T12:59:25.511Z,92.70
2019-02-18T13:01:56.337Z,92.70
2019-02-18T13:04:26.997Z,92.70
2019-02-18T13:06:57.902Z,92.70
2019-02-18T13:09:29.153Z,92.50
2019-02-18T13:11:59.751Z,92.50
2019-02-18T13:14:30.501Z,92.80
2019-02-18T13:17:01.569Z,92.40
2019-02-18T13:19:32.212Z,92.80
2019-02-18T13:22:03.563Z,92.50
2019-02-18T13:24:34.353Z,92.40
2019-02-18T13:27:05.149Z,92.60
2019-02-18T13:29:36.183Z,92.90
2019-02-18T13:32:07.368Z,92.60
2019-02-18T13:34:37.795Z,92.70
2019-02-18T13:37:08.761Z,92.80
2019-02-18T13:39:39.584Z,92.70
2019-02-18T13:42:10.168Z,92.50
2019-02-18T13:44:40.793Z,92.60
2019-02-18T13:47:11.803Z,92.50
2019-02-18T13:49:42.964Z,92.60
2019-02-18T13:52:14.001Z,92.50
2019-02-18T13:54:44.707Z,92.60
2019-02-18T13:57:15.484Z,93.10
2019-02-18T13:59:46.510Z,92.80
2019-02-18T14:02:17.358Z,93.00
2019-02-18T14:04:47.893Z,93.10
2019-02-18T14:07:18.473Z,92.70
2019-02-18T14:09:49.227Z,92.90
2019-02-18T14:12:19.937Z,92.90
2019-02-18T14:14:50.532Z,93.00
2019-02-18T14:17:21.212Z,93.10
2019-02-18T14:19:52.365Z,93.00
2019-02-18T14:22:23.097Z,93.00
2019-02-18T14:24:53.772Z,93.10
2019-02-18T14:27:24.873Z,93.10
2019-02-18T14:29:55.352Z,93.50
2019-02-18T14:32:26.001Z,93.20
2019-02-18T14:34:56.977Z,93.10
2019-02-18T14:37:27.773Z,92.80
2019-02-18T14:39:58.471Z,93.10
2019-02-18T14:42:29.289Z,93.20
2019-02-18T14:44:59.960Z,93.30
2019-02-18T14:47:30.485Z,93.10
2019-02-18T14:50:01.138Z,93.20
2019-02-18T14:52:31.716Z,93.00
2019-02-18T14:55:02.584Z,93.10
2019-02-18T14:57:33.991Z,93.50
2019-02-18T15:00:10.406Z,93.40
2019-02-18T15:02:41.245Z,93.20
2019-02-18T15:05:12.088Z,93.40
2019-02-18T15:07:43.104Z,93.60
2019-02-18T15:10:15.703Z,93.80
2019-02-18T15:12:46.576Z,93.20
2019-02-18T15:15:18.203Z,93.20
2019-02-18T15:17:48.987Z,93.40
2019-02-18T15:20:20.023Z,93.40
2019-02-18T15:22:50.719Z,93.40
2019-02-18T15:25:21.295Z,93.30
2019-02-18T15:27:52.030Z,93.50
2019-02-18T15:30:23.557Z,93.20
2019-02-18T15:32:54.289Z,93.40
2019-02-18T15:35:25.187Z,93.40
2019-02-18T15:37:56.196Z,93.30
2019-02-18T15:40:27.442Z,93.60
2019-02-18T15:42:58.336Z,93.50
2019-02-18T15:45:28.950Z,93.60
2019-02-18T15:48:01.745Z,93.90
2019-02-18T15:50:31.921Z,93.60
2019-02-18T15:53:02.836Z,93.60
2019-02-18T15:55:33.967Z,93.60
2019-02-18T15:58:04.787Z,93.70
2019-02-18T16:00:35.910Z,93.80
2019-02-18T16:03:06.707Z,93.80
2019-02-18T16:05:37.482Z,93.70
2019-02-18T16:08:08.447Z,94.00
2019-02-18T16:10:39.828Z,94.00
2019-02-18T16:13:11.086Z,93.70
2019-02-18T16:15:42.183Z,93.80
2019-02-18T16:18:12.846Z,93.90
2019-02-18T16:20:43.543Z,93.70
2019-02-18T16:23:14.429Z,93.80
2019-02-18T16:25:45.897Z,93.70
2019-02-18T16:28:16.691Z,93.80
2019-02-18T16:30:47.480Z,93.80
2019-02-18T16:33:18.121Z,93.70
2019-02-18T16:35:48.916Z,94.10
2019-02-18T16:38:20.019Z,93.80
2019-02-18T16:40:52.519Z,94.00
2019-02-18T16:43:23.587Z,94.50
2019-02-18T16:45:54.240Z,93.70
2019-02-18T16:48:25.613Z,93.00
2019-02-18T16:50:59.431Z,92.40
2019-02-18T16:53:30.332Z,91.60
2019-02-18T16:56:01.359Z,91.30
2019-02-18T16:58:32.350Z,91.20
2019-02-18T17:01:04.762Z,91.00
2019-02-18T17:03:36.018Z,91.00
2019-02-18T17:06:06.761Z,90.90
2019-02-18T17:08:37.417Z,91.00
2019-02-18T17:11:08.202Z,90.70
2019-02-18T17:13:38.714Z,90.70
2019-02-18T17:16:09.734Z,90.70
2019-02-18T17:18:40.770Z,90.50
2019-02-18T17:21:11.584Z,90.50
2019-02-18T17:23:42.278Z,90.60
2019-02-18T17:26:12.964Z,90.70
2019-02-18T17:28:43.709Z,90.80
2019-02-18T17:31:15.050Z,90.80
2019-02-18T17:33:45.849Z,90.90
2019-02-18T17:36:16.475Z,90.90
2019-02-18T17:38:47.206Z,90.90
2019-02-18T17:41:18.160Z,91.10
2019-02-18T17:43:48.501Z,90.90
2019-02-18T17:46:19.315Z,91.10
2019-02-18T17:48:50.180Z,90.90
2019-02-18T17:51:21.438Z,91.00
2019-02-18T17:53:52.183Z,91.20
2019-02-18T17:56:23.309Z,90.90
2019-02-18T17:58:54.063Z,91.00
2019-02-18T18:01:24.934Z,91.00
2019-02-18T18:03:55.744Z,90.90
2019-02-18T18:06:26.915Z,90.90
2019-02-18T18:08:57.521Z,90.60
2019-02-18T18:11:28.935Z,91.00
2019-02-18T18:13:59.571Z,90.90
2019-02-18T18:16:30.230Z,91.00
2019-02-18T18:19:08.911Z,91.40
2019-02-18T18:21:32.918Z,91.60
2019-02-18T18:24:03.872Z,91.80
2019-02-18T18:26:34.557Z,91.40
2019-02-18T18:29:05.813Z,91.60
2019-02-18T18:31:36.520Z,91.30
2019-02-18T18:34:07.031Z,91.60
2019-02-18T18:36:37.802Z,91.40
2019-02-18T18:39:08.387Z,91.50
2019-02-18T18:41:45.389Z,91.70
2019-02-18T18:44:19.247Z,91.50
2019-02-18T18:46:50.968Z,91.90
2019-02-18T18:49:22.105Z,90.90
2019-02-18T18:51:52.998Z,91.20
2019-02-18T18:54:23.732Z,91.50
2019-02-18T18:56:54.680Z,91.60
2019-02-18T18:59:25.323Z,91.10
2019-02-18T19:01:56.248Z,91.80
2019-02-18T19:04:29.015Z,91.40
2019-02-18T19:06:59.810Z,91.90
2019-02-18T19:09:30.312Z,92.00
2019-02-18T19:12:01.929Z,91.50
2019-02-18T19:14:32.975Z,91.20
2019-02-18T19:17:03.664Z,90.90
2019-02-18T19:19:34.504Z,92.00
2019-02-18T19:22:05.262Z,91.90
2019-02-18T19:24:36.065Z,91.80
2019-02-18T19:27:07.027Z,91.90
2019-02-18T19:29:38.195Z,91.60
2019-02-18T19:32:09.227Z,91.30
2019-02-18T19:34:40.123Z,91.80
2019-02-18T19:37:10.981Z,91.20
2019-02-18T19:39:42.093Z,92.00
2019-02-18T19:42:12.740Z,91.10
2019-02-18T19:44:43.409Z,90.70
2019-02-18T19:47:14.547Z,90.60
2019-02-18T19:49:45.116Z,90.70
2019-02-18T19:52:15.979Z,90.50
2019-02-18T19:54:46.575Z,91.20
2019-02-18T19:57:17.087Z,91.80
2019-02-18T19:59:47.886Z,91.00
2019-02-18T20:02:18.758Z,91.70
2019-02-18T20:04:49.547Z,91.60
2019-02-18T20:07:20.129Z,91.40
2019-02-18T20:09:50.758Z,91.30
2019-02-18T20:12:21.626Z,90.90
2019-02-18T20:14:52.597Z,90.70
2019-02-18T20:17:23.454Z,91.60
2019-02-18T20:19:54.207Z,91.60
2019-02-18T20:22:24.888Z,91.40
2019-02-18T20:24:55.692Z,91.80
2019-02-18T20:27:26.270Z,90.90
2019-02-18T20:29:58.267Z,90.60
2019-02-18T20:32:29.151Z,91.10
2019-02-18T20:35:00.183Z,91.80
2019-02-18T20:37:31.059Z,91.70
2019-02-18T20:40:02.316Z,91.70
2019-02-18T20:42:33.899Z,91.20
2019-02-18T20:45:05.146Z,91.50
2019-02-18T20:47:35.850Z,92.20
2019-02-18T20:50:08.865Z,91.80
2019-02-18T20:52:39.587Z,91.80
2019-02-18T20:55:16.897Z,91.50
2019-02-18T20:57:48.077Z,91.50
2019-02-18T21:00:22.187Z,91.40
2019-02-18T21:02:53.102Z,91.30
2019-02-18T21:05:24.506Z,91.10
2019-02-18T21:07:55.383Z,91.60
2019-02-18T21:10:25.977Z,91.10
2019-02-18T21:12:58.193Z,91.10
2019-02-18T21:15:29.110Z,91.20
2019-02-18T21:18:00.197Z,91.10
2019-02-18T21:20:31.459Z,91.20
2019-02-18T21:23:02.363Z,91.10
2019-02-18T21:25:33.200Z,91.30
2019-02-18T21:28:03.859Z,91.30
2019-02-18T21:30:34.829Z,91.20
2019-02-18T21:33:06.024Z,91.40
2019-02-18T21:35:36.725Z,91.30
2019-02-18T21:38:07.280Z,91.10
2019-02-18T21:40:37.840Z,91.50
2019-02-18T21:43:08.869Z,91.20
2019-02-18T21:45:41.219Z,91.30
2019-02-18T21:48:12.238Z,91.60
2019-02-18T21:50:44.616Z,91.50
2019-02-18T21:53:15.574Z,91.70
2019-02-18T21:55:46.497Z,91.80
2019-02-18T21:58:21.740Z,91.50
2019-02-18T22:00:53.441Z,91.80
2019-02-18T22:03:23.986Z,92.30
2019-02-18T22:05:54.930Z,92.10
2019-02-18T22:08:25.730Z,91.60
2019-02-18T22:10:56.849Z,91.70
2019-02-18T22:13:27.612Z,92.00
2019-02-18T22:15:58.288Z,91.90
2019-02-18T22:18:28.809Z,91.70
2019-02-18T22:20:59.441Z,91.90
2019-02-18T22:23:30.520Z,92.10
2019-02-18T22:26:01.390Z,91.70
2019-02-18T22:28:32.063Z,91.90
2019-02-18T22:31:02.677Z,91.80
2019-02-18T22:33:33.394Z,92.10
2019-02-18T22:36:04.058Z,91.80
2019-02-18T22:38:34.652Z,91.80
2019-02-18T22:41:05.734Z,92.10
2019-02-18T22:43:36.418Z,92.00
2019-02-18T22:46:07.119Z,92.00
2019-02-18T22:48:37.987Z,91.90
2019-02-18T22:51:09.009Z,92.30
2019-02-18T22:53:39.894Z,91.90
2019-02-18T22:56:10.872Z,92.00
2019-02-18T22:58:41.586Z,92.00
2019-02-18T23:01:12.649Z,92.10
2019-02-18T23:03:43.409Z,92.20
2019-02-18T23:06:14.094Z,92.20
2019-02-18T23:08:44.965Z,92.20
2019-02-18T23:11:15.454Z,92.60
2019-02-18T23:13:45.934Z,92.30
2019-02-18T23:16:16.630Z,92.60
2019-02-18T23:18:47.103Z,92.30
2019-02-18T23:21:17.897Z,92.30
2019-02-18T23:23:48.490Z,92.20
2019-02-18T23:26:19.138Z,92.30
2019-02-18T23:28:49.763Z,92.30
2019-02-18T23:31:20.504Z,92.20
2019-02-18T23:33:51.037Z,92.30
2019-02-18T23:36:22.025Z,92.40
2019-02-18T23:38:53.169Z,92.40
2019-02-18T23:41:23.725Z,92.40
2019-02-18T23:43:54.616Z,92.40
2019-02-18T23:46:25.316Z,92.40
2019-02-18T23:48:56.286Z,92.30
2019-02-18T23:51:27.073Z,92.40
2019-02-18T23:53:57.953Z,92.50
2019-02-18T23:56:28.599Z,92.40
2019-02-18T23:58:59.285Z,92.40
